createdAt,value
2022-09-20T00:00:42.556Z,50.849564
2022-09-20T00:01:42.576Z,50.849571
2022-09-20T00:02:42.511Z,50.849609
2022-09-20T00:03:42.499Z,50.849583
2022-09-20T00:04:42.544Z,50.849564
2022-09-20T00:05:42.501Z,50.849556
2022-09-20T00:06:42.492Z,50.849579
2022-09-20T00:07:42.463Z,50.849609
2022-09-20T00:08:42.450Z,50.849560
2022-09-20T00:09:42.454Z,50.849567
2022-09-20T00:10:42.461Z,50.849567
2022-09-20T00:11:42.459Z,50.849575
2022-09-20T00:12:42.464Z,50.849594
2022-09-20T00:13:42.426Z,50.849556
2022-09-20T00:14:42.402Z,50.849628
2022-09-20T00:15:42.398Z,50.849609
2022-09-20T00:16:42.483Z,50.849590
2022-09-20T00:17:42.403Z,50.849617
2022-09-20T00:18:42.396Z,50.849617
2022-09-20T00:19:42.394Z,50.849594
2022-09-20T00:20:42.345Z,50.849594
2022-09-20T00:21:42.352Z,50.849567
2022-09-20T00:22:42.328Z,50.849575
2022-09-20T00:23:42.332Z,50.849598
2022-09-20T00:24:46.783Z,50.849583
2022-09-20T00:25:43.302Z,50.849533
2022-09-20T00:26:42.298Z,50.849556
2022-09-20T00:27:42.328Z,50.849556
2022-09-20T00:28:42.286Z,50.849537
2022-09-20T00:29:42.303Z,50.849548
2022-09-20T00:30:42.318Z,50.849525
2022-09-20T00:31:42.370Z,50.849548
2022-09-20T00:32:42.265Z,50.849545
2022-09-20T00:33:42.241Z,50.849525
2022-09-20T00:34:42.262Z,50.849533
2022-09-20T00:35:42.252Z,50.849571
2022-09-20T00:36:42.225Z,50.849491
2022-09-20T00:37:42.195Z,50.849545
2022-09-20T00:38:42.186Z,50.849548
2022-09-20T00:39:42.182Z,50.849545
2022-09-20T00:40:42.228Z,50.849548
2022-09-20T00:41:42.197Z,50.849506
2022-09-20T00:42:42.161Z,50.849514
2022-09-20T00:43:42.177Z,50.849514
2022-09-20T00:44:42.145Z,50.849525
2022-09-20T00:45:42.205Z,50.849533
2022-09-20T00:46:42.138Z,50.849529
2022-09-20T00:47:42.172Z,50.849537
2022-09-20T00:48:42.188Z,50.849529
2022-09-20T00:49:42.145Z,50.849533
2022-09-20T00:50:42.099Z,50.849529
2022-09-20T00:51:42.098Z,50.849510
2022-09-20T00:52:42.090Z,50.849529
2022-09-20T00:53:42.091Z,50.849537
2022-09-20T00:54:42.057Z,50.849525
2022-09-20T00:55:42.041Z,50.849525
2022-09-20T00:56:42.706Z,50.849522
2022-09-20T00:57:42.035Z,50.849552
2022-09-20T00:58:42.227Z,50.849556
2022-09-20T00:59:42.033Z,50.849533
2022-09-20T01:00:42.102Z,50.849556
2022-09-20T01:01:42.178Z,50.849533
2022-09-20T01:02:42.103Z,50.849533
2022-09-20T01:03:42.005Z,50.849525
2022-09-20T01:04:41.996Z,50.849514
2022-09-20T01:05:42.007Z,50.849537
2022-09-20T01:06:41.988Z,50.849503
2022-09-20T01:07:41.969Z,50.849537
2022-09-20T01:08:41.970Z,50.849503
2022-09-20T01:09:41.966Z,50.849510
2022-09-20T01:10:41.924Z,50.849529
2022-09-20T01:11:41.905Z,50.849537
2022-09-20T01:12:41.897Z,50.849533
2022-09-20T01:13:41.891Z,50.849522
2022-09-20T01:14:41.957Z,50.849510
2022-09-20T01:15:41.897Z,50.849533
2022-09-20T01:16:41.927Z,50.849541
2022-09-20T01:17:41.872Z,50.849514
2022-09-20T01:18:41.866Z,50.849529
2022-09-20T01:19:41.972Z,50.849529
2022-09-20T01:20:41.899Z,50.849533
2022-09-20T01:21:41.859Z,50.849537
2022-09-20T01:22:41.869Z,50.849556
2022-09-20T01:23:41.892Z,50.849529
2022-09-20T01:24:41.793Z,50.849556
2022-09-20T01:25:41.850Z,50.849537
2022-09-20T01:26:41.836Z,50.849529
2022-09-20T01:27:41.814Z,50.849556
2022-09-20T01:28:41.820Z,50.849522
2022-09-20T01:29:41.766Z,50.849533
2022-09-20T01:30:41.744Z,50.849529
2022-09-20T01:31:41.775Z,50.849514
2022-09-20T01:32:41.748Z,50.849506
2022-09-20T01:33:41.717Z,50.849510
2022-09-20T01:34:41.793Z,50.849506
2022-09-20T01:35:41.701Z,50.849533
2022-09-20T01:36:41.700Z,50.849541
2022-09-20T01:37:41.731Z,50.849552
2022-09-20T01:38:41.697Z,50.849548
2022-09-20T01:39:41.726Z,50.849556
2022-09-20T01:40:41.703Z,50.849548
2022-09-20T01:44:07.303Z,50.849545
2022-09-20T01:45:07.307Z,50.849522
2022-09-20T01:46:07.334Z,50.849518
2022-09-20T01:47:07.270Z,50.849529
2022-09-20T01:48:07.262Z,50.849529
2022-09-20T01:49:07.418Z,50.849514
2022-09-20T01:50:07.249Z,50.849518
2022-09-20T01:51:07.246Z,50.849522
2022-09-20T01:52:07.219Z,50.849545
2022-09-20T01:53:07.247Z,50.849533
2022-09-20T01:54:07.200Z,50.849514
2022-09-20T01:55:07.201Z,50.849518
2022-09-20T01:56:07.196Z,50.849514
2022-09-20T01:57:07.228Z,50.849514
2022-09-20T01:58:07.168Z,50.849518
2022-09-20T01:59:23.191Z,50.849537
2022-09-20T02:00:08.153Z,50.849541
2022-09-20T02:01:07.213Z,50.849510
2022-09-20T02:02:07.202Z,50.849525
2022-09-20T02:03:07.158Z,50.849506
2022-09-20T02:04:07.121Z,50.849522
2022-09-20T02:05:07.114Z,50.849506
2022-09-20T02:06:07.104Z,50.849480
2022-09-20T02:07:07.130Z,50.849506
2022-09-20T02:08:07.111Z,50.849503
2022-09-20T02:09:07.073Z,50.849522
2022-09-20T02:10:07.070Z,50.849510
2022-09-20T02:11:07.052Z,50.849518
2022-09-20T02:12:07.042Z,50.849518
2022-09-20T02:13:07.038Z,50.849522
2022-09-20T02:14:07.091Z,50.849503
2022-09-20T02:15:07.020Z,50.849510
2022-09-20T02:16:07.036Z,50.849476
2022-09-20T02:17:07.006Z,50.849499
2022-09-20T02:18:06.998Z,50.849476
2022-09-20T02:19:06.994Z,50.849503
2022-09-20T02:20:07.001Z,50.849499
2022-09-20T02:21:06.970Z,50.849499
2022-09-20T02:22:06.968Z,50.849480
2022-09-20T02:23:07.093Z,50.849499
2022-09-20T02:24:06.955Z,50.849464
2022-09-20T02:25:06.961Z,50.849449
2022-09-20T02:26:06.936Z,50.849480
2022-09-20T02:27:06.924Z,50.849487
2022-09-20T02:28:06.913Z,50.849495
2022-09-20T02:29:07.137Z,50.849495
2022-09-20T02:30:06.896Z,50.849495
2022-09-20T02:31:06.943Z,50.849529
2022-09-20T02:32:06.955Z,50.849491
2022-09-20T02:33:06.869Z,50.849495
2022-09-20T02:34:06.863Z,50.849491
2022-09-20T02:35:06.847Z,50.849487
2022-09-20T02:36:06.844Z,50.849464
2022-09-20T02:37:06.853Z,50.849480
2022-09-20T02:38:06.829Z,50.849472
2022-09-20T02:39:06.812Z,50.849472
2022-09-20T02:40:06.861Z,50.849537
2022-09-20T02:41:06.795Z,50.849499
2022-09-20T02:42:06.812Z,50.849503
2022-09-20T02:43:06.776Z,50.849518
2022-09-20T02:44:06.953Z,50.849495
2022-09-20T02:45:06.766Z,50.849495
2022-09-20T02:46:06.801Z,50.849483
2022-09-20T02:47:06.750Z,50.849457
2022-09-20T02:48:06.763Z,50.849491
2022-09-20T02:49:06.733Z,50.849468
2022-09-20T02:50:06.737Z,50.849491
2022-09-20T02:51:06.751Z,50.849510
2022-09-20T02:52:06.700Z,50.849510
2022-09-20T02:53:06.694Z,50.849506
2022-09-20T02:54:06.676Z,50.849533
2022-09-20T02:55:06.669Z,50.849518
2022-09-20T02:56:06.669Z,50.849457
2022-09-20T02:57:06.690Z,50.849552
2022-09-20T02:58:06.657Z,50.849518
2022-09-20T02:59:06.871Z,50.849487
2022-09-20T03:00:06.635Z,50.849533
2022-09-20T03:01:06.739Z,50.849529
2022-09-20T03:02:06.658Z,50.849525
2022-09-20T03:03:06.626Z,50.849506
2022-09-20T03:04:06.613Z,50.849518
2022-09-20T03:05:06.614Z,50.849503
2022-09-20T03:06:06.593Z,50.849510
2022-09-20T03:07:06.565Z,50.849510
2022-09-20T03:08:06.552Z,50.849495
2022-09-20T03:09:06.574Z,50.849514
2022-09-20T03:10:06.534Z,50.849506
2022-09-20T03:11:06.556Z,50.849510
2022-09-20T03:12:06.523Z,50.849533
2022-09-20T03:13:06.506Z,50.849525
2022-09-20T03:14:06.602Z,50.849529
2022-09-20T03:15:06.518Z,50.849529
2022-09-20T03:16:06.542Z,50.849518
2022-09-20T03:17:06.541Z,50.849506
2022-09-20T03:18:06.470Z,50.849552
2022-09-20T03:19:06.480Z,50.849545
2022-09-20T03:20:06.479Z,50.849545
2022-09-20T03:21:06.456Z,50.849525
2022-09-20T03:22:06.445Z,50.849541
2022-09-20T03:23:06.464Z,50.849533
2022-09-20T03:24:06.422Z,50.849522
2022-09-20T03:25:06.404Z,50.849503
2022-09-20T03:26:06.422Z,50.849495
2022-09-20T03:27:06.402Z,50.849503
2022-09-20T03:28:06.379Z,50.849514
2022-09-20T03:29:06.518Z,50.849503
2022-09-20T03:30:06.365Z,50.849525
2022-09-20T03:31:06.417Z,50.849506
2022-09-20T03:32:06.422Z,50.849518
2022-09-20T03:33:06.347Z,50.849514
2022-09-20T03:34:06.427Z,50.849510
2022-09-20T03:35:06.336Z,50.849518
2022-09-20T03:36:06.323Z,50.849510
2022-09-20T03:37:06.355Z,50.849510
2022-09-20T03:38:06.311Z,50.849522
2022-09-20T03:39:06.287Z,50.849533
2022-09-20T03:40:06.324Z,50.849514
2022-09-20T03:41:06.275Z,50.849518
2022-09-20T03:42:06.260Z,50.849522
2022-09-20T03:43:06.306Z,50.849525
2022-09-20T03:44:06.363Z,50.849522
2022-09-20T03:45:06.243Z,50.849529
2022-09-20T03:46:06.325Z,50.849545
2022-09-20T03:47:06.231Z,50.849510
2022-09-20T03:48:06.222Z,50.849506
2022-09-20T03:49:06.237Z,50.849522
2022-09-20T03:50:06.198Z,50.849522
2022-09-20T03:51:06.203Z,50.849487
2022-09-20T03:52:06.193Z,50.849480
2022-09-20T03:53:06.169Z,50.849506
2022-09-20T03:54:06.171Z,50.849510
2022-09-20T03:55:06.199Z,50.849522
2022-09-20T03:56:06.143Z,50.849529
2022-09-20T03:57:06.145Z,50.849510
2022-09-20T03:58:08.912Z,50.849514
2022-09-20T03:59:06.219Z,50.849525
2022-09-20T04:00:06.135Z,50.849522
2022-09-20T04:01:06.146Z,50.849506
2022-09-20T04:02:06.141Z,50.849514
2022-09-20T04:03:06.092Z,50.849499
2022-09-20T04:04:06.083Z,50.849510
2022-09-20T04:05:06.076Z,50.849510
2022-09-20T04:06:06.098Z,50.849525
2022-09-20T04:07:06.070Z,50.849552
2022-09-20T04:08:06.068Z,50.849556
2022-09-20T04:09:06.035Z,50.849545
2022-09-20T04:10:06.041Z,50.849510
2022-09-20T04:11:06.020Z,50.849522
2022-09-20T04:12:06.070Z,50.849503
2022-09-20T04:13:06.003Z,50.849541
2022-09-20T04:14:11.152Z,50.849548
2022-09-20T04:15:06.993Z,50.849545
2022-09-20T04:16:06.088Z,50.849537
2022-09-20T04:17:06.091Z,50.849541
2022-09-20T04:18:05.962Z,50.849533
2022-09-20T04:19:05.952Z,50.849522
2022-09-20T04:20:05.981Z,50.849529
2022-09-20T04:21:05.941Z,50.849529
2022-09-20T04:22:05.943Z,50.849518
2022-09-20T04:23:05.932Z,50.849545
2022-09-20T04:24:05.910Z,50.849545
2022-09-20T04:25:05.931Z,50.849518
2022-09-20T04:26:05.912Z,50.849537
2022-09-20T04:27:05.887Z,50.849522
2022-09-20T04:28:05.882Z,50.849522
2022-09-20T04:29:05.991Z,50.849525
2022-09-20T04:30:05.893Z,50.849522
2022-09-20T04:31:05.848Z,50.849537
2022-09-20T04:32:05.895Z,50.849514
2022-09-20T04:33:05.832Z,50.849525
2022-09-20T04:34:05.829Z,50.849533
2022-09-20T04:35:05.826Z,50.849525
2022-09-20T04:36:05.843Z,50.849522
2022-09-20T04:37:05.802Z,50.849548
2022-09-20T04:38:05.804Z,50.849552
2022-09-20T04:39:05.798Z,50.849529
2022-09-20T04:40:05.830Z,50.849541
2022-09-20T04:41:05.779Z,50.849537
2022-09-20T04:42:05.792Z,50.849545
2022-09-20T04:43:05.748Z,50.849552
2022-09-20T04:44:05.800Z,50.849545
2022-09-20T04:45:05.757Z,50.849545
2022-09-20T04:46:05.808Z,50.849560
2022-09-20T04:47:05.727Z,50.849552
2022-09-20T04:48:05.715Z,50.849541
2022-09-20T04:49:05.708Z,50.849525
2022-09-20T04:50:05.695Z,50.849529
2022-09-20T04:51:05.716Z,50.849525
2022-09-20T04:52:05.686Z,50.849529
2022-09-20T04:53:05.709Z,50.849514
2022-09-20T04:54:05.657Z,50.849533
2022-09-20T04:55:05.654Z,50.849525
2022-09-20T04:56:05.646Z,50.849514
2022-09-20T04:57:05.659Z,50.849514
2022-09-20T04:58:05.631Z,50.849529
2022-09-20T04:59:05.767Z,50.849533
2022-09-20T05:00:05.626Z,50.849533
2022-09-20T05:01:05.638Z,50.849541
2022-09-20T05:02:05.648Z,50.849545
2022-09-20T05:03:05.611Z,50.849533
2022-09-20T05:04:05.576Z,50.849533
2022-09-20T05:05:05.785Z,50.849537
2022-09-20T05:06:05.562Z,50.849514
2022-09-20T05:07:05.547Z,50.849529
2022-09-20T05:08:05.547Z,50.849529
2022-09-20T05:09:05.528Z,50.849529
2022-09-20T05:10:05.517Z,50.849537
2022-09-20T05:11:05.545Z,50.849537
2022-09-20T05:12:05.509Z,50.849556
2022-09-20T05:13:05.492Z,50.849552
2022-09-20T05:14:05.495Z,50.849548
2022-09-20T05:15:05.501Z,50.849548
2022-09-20T05:16:05.537Z,50.849529
2022-09-20T05:17:05.559Z,50.849533
2022-09-20T05:18:05.496Z,50.849541
2022-09-20T05:19:05.461Z,50.849537
2022-09-20T05:20:05.444Z,50.849541
2022-09-20T05:21:05.430Z,50.849537
2022-09-20T05:22:05.475Z,50.849537
2022-09-20T05:23:05.411Z,50.849537
2022-09-20T05:24:07.463Z,50.849571
2022-09-20T05:25:05.390Z,50.849545
2022-09-20T05:26:06.222Z,50.849537
2022-09-20T05:27:05.396Z,50.849525
2022-09-20T05:28:05.366Z,50.849560
2022-09-20T05:29:05.390Z,50.849556
2022-09-20T05:30:05.481Z,50.849518
2022-09-20T05:31:05.350Z,50.849537
2022-09-20T05:32:05.440Z,50.849560
2022-09-20T05:33:05.341Z,50.849564
2022-09-20T05:34:05.324Z,50.849590
2022-09-20T05:35:05.325Z,50.849552
2022-09-20T05:36:05.310Z,50.849556
2022-09-20T05:37:05.316Z,50.849575
2022-09-20T05:38:05.311Z,50.849545
2022-09-20T05:39:05.344Z,50.849529
2022-09-20T05:40:05.315Z,50.849533
2022-09-20T05:41:05.274Z,50.849552
2022-09-20T05:42:05.251Z,50.849567
2022-09-20T05:43:05.242Z,50.849571
2022-09-20T05:44:05.413Z,50.849518
2022-09-20T05:45:05.310Z,50.849545
2022-09-20T05:46:05.297Z,50.849552
2022-09-20T05:47:05.221Z,50.849548
2022-09-20T05:48:05.225Z,50.849556
2022-09-20T05:49:05.198Z,50.849560
2022-09-20T05:50:05.407Z,50.849586
2022-09-20T05:51:05.179Z,50.849583
2022-09-20T05:52:05.169Z,50.849564
2022-09-20T05:53:05.186Z,50.849571
2022-09-20T05:54:05.190Z,50.849552
2022-09-20T05:55:05.142Z,50.849571
2022-09-20T05:56:05.141Z,50.849560
2022-09-20T05:57:05.134Z,50.849560
2022-09-20T05:58:05.120Z,50.849548
2022-09-20T05:59:07.280Z,50.849556
2022-09-20T06:00:05.128Z,50.849548
2022-09-20T06:01:05.190Z,50.849586
2022-09-20T06:02:05.132Z,50.849579
2022-09-20T06:03:05.096Z,50.849560
2022-09-20T06:04:05.062Z,50.849590
2022-09-20T06:05:05.076Z,50.849586
2022-09-20T06:06:05.109Z,50.849594
2022-09-20T06:07:05.040Z,50.849564
2022-09-20T06:08:05.030Z,50.849567
2022-09-20T06:09:05.024Z,50.849533
2022-09-20T06:10:05.015Z,50.849533
2022-09-20T06:11:05.033Z,50.849586
2022-09-20T06:12:04.993Z,50.849594
2022-09-20T06:13:04.994Z,50.849564
2022-09-20T06:14:05.214Z,50.849552
2022-09-20T06:15:04.974Z,50.849552
2022-09-20T06:16:05.012Z,50.849548
2022-09-20T06:17:05.004Z,50.849564
2022-09-20T06:18:04.942Z,50.849564
2022-09-20T06:19:04.932Z,50.849594
2022-09-20T06:20:04.928Z,50.849579
2022-09-20T06:21:04.942Z,50.849579
2022-09-20T06:22:04.907Z,50.849571
2022-09-20T06:23:04.936Z,50.849548
2022-09-20T06:24:04.891Z,50.849548
2022-09-20T06:25:04.876Z,50.849537
2022-09-20T06:26:04.877Z,50.849548
2022-09-20T06:27:04.875Z,50.849537
2022-09-20T06:28:04.888Z,50.849545
2022-09-20T06:29:04.858Z,50.849583
2022-09-20T06:30:04.868Z,50.849571
2022-09-20T06:31:04.865Z,50.849556
2022-09-20T06:32:04.834Z,50.849548
2022-09-20T06:33:04.839Z,50.849579
2022-09-20T06:34:05.667Z,50.849571
2022-09-20T06:35:04.805Z,50.849571
2022-09-20T06:36:04.797Z,50.849571
2022-09-20T06:37:04.794Z,50.849567
2022-09-20T06:38:04.824Z,50.849545
2022-09-20T06:39:04.767Z,50.849537
2022-09-20T06:40:04.880Z,50.849545
2022-09-20T06:41:04.775Z,50.849556
2022-09-20T06:42:04.747Z,50.849567
2022-09-20T06:43:04.754Z,50.849545
2022-09-20T06:44:04.836Z,50.849533
2022-09-20T06:45:04.770Z,50.849545
2022-09-20T06:46:04.772Z,50.849564
2022-09-20T06:47:04.708Z,50.849537
2022-09-20T06:48:04.689Z,50.849548
2022-09-20T06:49:04.702Z,50.849533
2022-09-20T06:50:04.685Z,50.849522
2022-09-20T06:51:04.673Z,50.849556
2022-09-20T06:52:04.660Z,50.849533
2022-09-20T06:53:04.652Z,50.849533
2022-09-20T06:54:04.645Z,50.849545
2022-09-20T06:55:04.660Z,50.849529
2022-09-20T06:56:04.627Z,50.849522
2022-09-20T06:57:04.640Z,50.849525
2022-09-20T06:58:05.233Z,50.849522
2022-09-20T06:59:04.608Z,50.849533
2022-09-20T07:00:04.643Z,50.849522
2022-09-20T07:01:04.643Z,50.849525
2022-09-20T07:02:04.621Z,50.849525
2022-09-20T07:03:04.566Z,50.849518
2022-09-20T07:04:04.558Z,50.849510
2022-09-20T07:05:04.574Z,50.849518
2022-09-20T07:06:04.599Z,50.849487
2022-09-20T07:07:09.126Z,50.849499
2022-09-20T07:08:05.546Z,50.849533
2022-09-20T07:09:04.523Z,50.849518
2022-09-20T07:10:04.582Z,50.849506
2022-09-20T07:11:04.521Z,50.849518
2022-09-20T07:12:04.528Z,50.849518
2022-09-20T07:13:04.486Z,50.849495
2022-09-20T07:14:04.691Z,50.849510
2022-09-20T07:15:04.469Z,50.849522
2022-09-20T07:16:04.460Z,50.849529
2022-09-20T07:17:04.447Z,50.849510
2022-09-20T07:18:04.470Z,50.849522
2022-09-20T07:19:04.452Z,50.849529
2022-09-20T07:20:04.428Z,50.849529
2022-09-20T07:21:04.457Z,50.849518
2022-09-20T07:22:04.446Z,50.849510
2022-09-20T07:23:04.406Z,50.849518
2022-09-20T07:24:04.423Z,50.849518
2022-09-20T07:25:04.388Z,50.849518
2022-09-20T07:26:04.425Z,50.849510
2022-09-20T07:27:04.375Z,50.849525
2022-09-20T07:28:04.360Z,50.849529
2022-09-20T07:29:04.417Z,50.849541
2022-09-20T07:30:04.362Z,50.849495
2022-09-20T07:31:04.328Z,50.849491
2022-09-20T07:32:04.331Z,50.849495
2022-09-20T07:33:04.341Z,50.849487
2022-09-20T07:34:04.323Z,50.849506
2022-09-20T07:35:04.291Z,50.849495
2022-09-20T07:36:04.287Z,50.849487
2022-09-20T07:37:04.294Z,50.849529
2022-09-20T07:38:04.281Z,50.849510
2022-09-20T07:39:04.298Z,50.849522
2022-09-20T07:40:04.366Z,50.849499
2022-09-20T07:41:04.246Z,50.849525
2022-09-20T07:42:04.337Z,50.849552
2022-09-20T07:43:04.229Z,50.849514
2022-09-20T07:44:04.228Z,50.849499
2022-09-20T07:45:04.232Z,50.849525
2022-09-20T07:46:04.267Z,50.849537
2022-09-20T07:47:04.198Z,50.849537
2022-09-20T07:48:04.196Z,50.849552
2022-09-20T07:49:04.182Z,50.849525
2022-09-20T07:50:04.175Z,50.849567
2022-09-20T07:51:08.009Z,50.849545
2022-09-20T07:52:04.187Z,50.849518
2022-09-20T07:53:04.152Z,50.849491
2022-09-20T07:54:04.146Z,50.849506
2022-09-20T07:55:04.154Z,50.849541
2022-09-20T07:56:04.130Z,50.849514
2022-09-20T07:57:04.154Z,50.849510
2022-09-20T07:58:04.110Z,50.849518
2022-09-20T07:59:04.184Z,50.849522
2022-09-20T08:00:04.098Z,50.849506
2022-09-20T08:01:04.118Z,50.849518
2022-09-20T08:02:04.147Z,50.849522
2022-09-20T08:03:04.075Z,50.849518
2022-09-20T08:04:04.051Z,50.849506
2022-09-20T08:05:04.062Z,50.849499
2022-09-20T08:06:04.066Z,50.849495
2022-09-20T08:07:04.030Z,50.849487
2022-09-20T08:08:04.043Z,50.849514
2022-09-20T08:09:06.857Z,50.849495
2022-09-20T08:10:05.006Z,50.849487
2022-09-20T08:11:03.999Z,50.849514
2022-09-20T08:14:06.629Z,50.849503
2022-09-20T08:15:06.416Z,50.849476
2022-09-20T08:16:03.961Z,50.849483
2022-09-20T08:17:03.947Z,50.849506
2022-09-20T08:18:03.939Z,50.849514
2022-09-20T08:19:03.931Z,50.849499
2022-09-20T08:20:03.919Z,50.849491
2022-09-20T08:21:03.929Z,50.849503
2022-09-20T08:22:03.901Z,50.849487
2022-09-20T08:23:22.625Z,50.849487
2022-09-20T08:24:04.907Z,50.849499
2022-09-20T08:25:03.882Z,50.849483
2022-09-20T08:26:03.874Z,50.849480
2022-09-20T08:27:03.888Z,50.849472
2022-09-20T08:28:03.861Z,50.849483
2022-09-20T08:29:03.838Z,50.849476
2022-09-20T08:30:03.835Z,50.849472
2022-09-20T08:31:03.825Z,50.849472
2022-09-20T08:32:03.871Z,50.849464
2022-09-20T08:33:03.835Z,50.849480
2022-09-20T08:34:03.821Z,50.849468
2022-09-20T08:35:05.894Z,50.849472
2022-09-20T08:36:03.783Z,50.849434
2022-09-20T08:37:03.846Z,50.849464
2022-09-20T08:40:04.847Z,50.849453
2022-09-20T08:41:03.752Z,50.849430
2022-09-20T08:42:03.746Z,50.849426
2022-09-20T08:43:05.577Z,50.849438
2022-09-20T08:44:03.798Z,50.849449
2022-09-20T08:45:03.728Z,50.849453
2022-09-20T08:46:06.869Z,50.849480
2022-09-20T08:47:03.701Z,50.849461
2022-09-20T08:48:03.749Z,50.849438
2022-09-20T08:49:03.684Z,50.849483
2022-09-20T08:50:11.595Z,50.849472
2022-09-20T08:51:05.729Z,50.849464
2022-09-20T08:52:04.353Z,50.849480
2022-09-20T08:53:03.878Z,50.849483
2022-09-20T08:54:03.700Z,50.849438
2022-09-20T08:55:07.551Z,50.849457
2022-09-20T08:56:03.637Z,50.849461
2022-09-20T08:57:03.605Z,50.849445
2022-09-20T08:58:08.207Z,50.849449
2022-09-20T08:59:04.623Z,50.849434
2022-09-20T09:00:03.663Z,50.849495
2022-09-20T09:01:03.611Z,50.849495
2022-09-20T09:02:03.593Z,50.849522
2022-09-20T09:03:03.557Z,50.849476
2022-09-20T09:04:03.882Z,50.849472
2022-09-20T09:05:03.575Z,50.849476
2022-09-20T09:06:05.618Z,50.849491
2022-09-20T09:07:04.518Z,50.849514
2022-09-20T09:08:04.655Z,50.849487
2022-09-20T09:09:03.512Z,50.849491
2022-09-20T09:10:04.928Z,50.849476
2022-09-20T09:11:03.582Z,50.849522
2022-09-20T09:12:03.578Z,50.849491
2022-09-20T09:13:03.496Z,50.849480
2022-09-20T09:14:03.459Z,50.849495
2022-09-20T09:15:03.504Z,50.849518
2022-09-20T09:16:03.467Z,50.849480
2022-09-20T09:17:03.575Z,50.849464
2022-09-20T09:18:03.561Z,50.849510
2022-09-20T09:19:03.468Z,50.849495
2022-09-20T09:20:04.250Z,50.849457
2022-09-20T09:21:03.577Z,50.849457
2022-09-20T09:22:03.417Z,50.849464
2022-09-20T09:23:03.396Z,50.849487
2022-09-20T09:24:03.540Z,50.849491
2022-09-20T09:25:03.519Z,50.849525
2022-09-20T09:26:03.361Z,50.849476
2022-09-20T09:27:03.369Z,50.849480
2022-09-20T09:28:04.271Z,50.849480
2022-09-20T09:29:03.361Z,50.849476
2022-09-20T09:30:03.320Z,50.849491
2022-09-20T09:31:03.319Z,50.849480
2022-09-20T09:32:03.351Z,50.849506
2022-09-20T09:33:03.305Z,50.849495
2022-09-20T09:34:03.323Z,50.849491
2022-09-20T09:35:03.290Z,50.849495
2022-09-20T09:36:03.285Z,50.849476
2022-09-20T09:37:03.276Z,50.849487
2022-09-20T09:38:03.270Z,50.849499
2022-09-20T09:39:03.321Z,50.849495
2022-09-20T09:40:03.336Z,50.849495
2022-09-20T09:41:03.287Z,50.849487
2022-09-20T09:42:03.238Z,50.849487
2022-09-20T09:43:03.237Z,50.849495
2022-09-20T09:44:03.207Z,50.849503
2022-09-20T09:45:03.268Z,50.849522
2022-09-20T09:46:03.305Z,50.849518
2022-09-20T09:47:03.186Z,50.849506
2022-09-20T09:48:03.169Z,50.849503
2022-09-20T09:49:03.173Z,50.849503
2022-09-20T09:50:07.540Z,50.849514
2022-09-20T09:51:04.184Z,50.849503
2022-09-20T09:52:03.139Z,50.849503
2022-09-20T09:53:03.141Z,50.849503
2022-09-20T09:54:03.128Z,50.849522
2022-09-20T09:55:05.322Z,50.849537
2022-09-20T09:56:03.109Z,50.849525
2022-09-20T09:57:03.126Z,50.849514
2022-09-20T09:58:03.100Z,50.849518
2022-09-20T09:59:03.078Z,50.849506
2022-09-20T10:00:06.345Z,50.849503
2022-09-20T10:01:04.189Z,50.849522
2022-09-20T10:02:03.078Z,50.849571
2022-09-20T10:03:03.050Z,50.849537
2022-09-20T10:04:03.037Z,50.849541
2022-09-20T10:05:03.039Z,50.849514
2022-09-20T10:06:03.029Z,50.849533
2022-09-20T10:07:03.048Z,50.849541
2022-09-20T10:08:03.038Z,50.849525
2022-09-20T10:09:03.007Z,50.849522
2022-09-20T10:10:03.005Z,50.849514
2022-09-20T10:11:03.025Z,50.849510
2022-09-20T10:12:03.000Z,50.849518
2022-09-20T10:13:02.980Z,50.849529
2022-09-20T10:14:02.972Z,50.849548
2022-09-20T10:15:02.964Z,50.849533
2022-09-20T10:16:02.952Z,50.849533
2022-09-20T10:17:02.970Z,50.849503
2022-09-20T10:18:02.936Z,50.849514
2022-09-20T10:19:02.938Z,50.849522
2022-09-20T10:20:02.917Z,50.849533
2022-09-20T10:21:02.908Z,50.849545
2022-09-20T10:22:02.926Z,50.849533
2022-09-20T10:23:34.406Z,50.849525
2022-09-20T10:24:04.770Z,50.849529
2022-09-20T10:25:02.876Z,50.849522
2022-09-20T10:26:02.859Z,50.849564
2022-09-20T10:27:02.879Z,50.849545
2022-09-20T10:28:02.872Z,50.849537
2022-09-20T10:29:02.837Z,50.849525
2022-09-20T10:30:02.888Z,50.849529
2022-09-20T10:31:02.909Z,50.849529
2022-09-20T10:32:02.820Z,50.849514
2022-09-20T10:33:02.809Z,50.849525
2022-09-20T10:34:02.815Z,50.849529
2022-09-20T10:35:02.789Z,50.849541
2022-09-20T10:36:02.779Z,50.849525
2022-09-20T10:37:02.769Z,50.849518
2022-09-20T10:38:02.800Z,50.849548
2022-09-20T10:39:02.778Z,50.849556
2022-09-20T10:40:02.807Z,50.849514
2022-09-20T10:41:02.725Z,50.849510
2022-09-20T10:42:02.850Z,50.849503
2022-09-20T10:43:02.712Z,50.849510
2022-09-20T10:44:05.428Z,50.849514
2022-09-20T10:45:02.737Z,50.849514
2022-09-20T10:47:03.764Z,50.849533
2022-09-20T10:48:02.675Z,50.849522
2022-09-20T10:49:02.674Z,50.849518
2022-09-20T10:50:02.694Z,50.849518
2022-09-20T10:51:02.652Z,50.849522
2022-09-20T10:52:02.641Z,50.849533
2022-09-20T10:53:02.628Z,50.849533
2022-09-20T10:54:02.620Z,50.849533
2022-09-20T10:55:02.639Z,50.849525
2022-09-20T10:56:02.628Z,50.849510
2022-09-20T10:57:02.609Z,50.849525
2022-09-20T10:58:02.595Z,50.849514
2022-09-20T10:59:02.575Z,50.849510
2022-09-20T11:00:02.560Z,50.849529
2022-09-20T11:01:02.636Z,50.849525
2022-09-20T11:02:02.643Z,50.849533
2022-09-20T11:03:02.544Z,50.849533
2022-09-20T11:04:02.541Z,50.849529
2022-09-20T11:05:02.528Z,50.849537
2022-09-20T11:06:02.518Z,50.849552
2022-09-20T11:07:02.585Z,50.849545
2022-09-20T11:08:02.514Z,50.849548
2022-09-20T11:09:02.489Z,50.849541
2022-09-20T11:10:02.483Z,50.849533
2022-09-20T11:11:02.731Z,50.849541
2022-09-20T11:12:02.478Z,50.849552
2022-09-20T11:13:02.471Z,50.849564
2022-09-20T11:14:02.454Z,50.849548
2022-09-20T11:15:02.449Z,50.849556
2022-09-20T11:16:02.451Z,50.849545
2022-09-20T11:17:02.646Z,50.849571
2022-09-20T11:18:02.437Z,50.849571
2022-09-20T11:19:02.436Z,50.849556
2022-09-20T11:20:07.262Z,50.849567
2022-09-20T11:21:03.403Z,50.849560
2022-09-20T11:22:02.386Z,50.849564
2022-09-20T11:23:02.393Z,50.849575
2022-09-20T11:24:02.388Z,50.849586
2022-09-20T11:25:02.388Z,50.849583
2022-09-20T11:26:02.395Z,50.849560
2022-09-20T11:27:02.371Z,50.849545
2022-09-20T11:28:02.343Z,50.849533
2022-09-20T11:29:02.338Z,50.849529
2022-09-20T11:30:02.369Z,50.849541
2022-09-20T11:31:02.335Z,50.849548
2022-09-20T11:32:02.441Z,50.849533